createdAt,value
2023-04-17T00:00:28.494Z,32.50
2023-04-17T00:02:30.096Z,31.55
2023-04-17T00:04:32.367Z,38.08
2023-04-17T00:06:33.896Z,39.70
2023-04-17T00:08:35.611Z,39.80
2023-04-17T00:10:37.014Z,44.50
2023-04-17T00:12:38.491Z,39.22
2023-04-17T00:14:40.066Z,43.33
2023-04-17T00:16:41.560Z,60.45
2023-04-17T00:18:42.986Z,54.60
2023-04-17T00:20:44.599Z,48.78
2023-04-17T00:22:46.250Z,52.33
2023-04-17T00:24:48.956Z,54.95
2023-04-17T00:26:50.747Z,63.40
2023-04-17T00:28:52.263Z,61.03
2023-04-17T00:30:53.734Z,124.53
2023-04-17T00:32:55.139Z,99.38
2023-04-17T00:34:56.570Z,51.33
2023-04-17T00:36:59.238Z,53.42
2023-04-17T00:39:00.657Z,48.05
2023-04-17T00:41:02.202Z,48.85
2023-04-17T00:43:04.061Z,43.88
2023-04-17T00:45:06.104Z,42.50
2023-04-17T00:47:07.657Z,43.10
2023-04-17T00:49:10.502Z,43.15
2023-04-17T00:51:12.217Z,46.00
2023-04-17T00:53:14.280Z,44.42
2023-04-17T00:55:15.727Z,46.78
2023-04-17T00:57:17.512Z,77.18
2023-04-17T00:59:19.013Z,51.20
2023-04-17T01:01:22.369Z,55.88
2023-04-17T01:03:24.037Z,51.60
2023-04-17T01:05:26.169Z,51.88
2023-04-17T01:07:27.765Z,71.65
2023-04-17T01:09:29.223Z,68.57
2023-04-17T01:11:30.800Z,63.28
2023-04-17T01:13:32.249Z,65.32
2023-04-17T01:15:34.059Z,68.18
2023-04-17T01:17:35.780Z,59.92
2023-04-17T01:19:37.268Z,190.65
2023-04-17T01:21:38.652Z,84.38
2023-04-17T01:23:42.932Z,140.98
2023-04-17T01:25:44.413Z,52.78
2023-04-17T01:27:45.861Z,77.50
2023-04-17T01:29:47.990Z,79.50
2023-04-17T01:31:49.557Z,79.97
2023-04-17T01:33:51.301Z,61.25
2023-04-17T01:35:52.702Z,63.80
2023-04-17T01:37:54.090Z,83.43
2023-04-17T01:39:56.006Z,60.13
2023-04-17T01:41:57.434Z,75.57
2023-04-17T01:43:58.932Z,128.32
2023-04-17T01:46:00.449Z,79.57
2023-04-17T01:48:01.965Z,56.88
2023-04-17T01:50:04.208Z,106.20
2023-04-17T01:52:06.246Z,91.53
2023-04-17T01:54:07.720Z,67.95
2023-04-17T01:56:09.217Z,100.72
2023-04-17T01:58:10.603Z,72.68
2023-04-17T02:00:12.426Z,89.78
2023-04-17T02:02:13.997Z,68.82
2023-04-17T02:04:15.570Z,76.70
2023-04-17T02:06:17.057Z,72.10
2023-04-17T02:08:18.513Z,75.32
2023-04-17T02:10:19.935Z,69.32
2023-04-17T02:12:21.381Z,70.10
2023-04-17T02:14:22.843Z,66.03
2023-04-17T02:16:24.366Z,78.93
2023-04-17T02:18:26.573Z,76.60
2023-04-17T02:20:28.063Z,77.85
2023-04-17T02:22:29.489Z,82.10
2023-04-17T02:24:31.507Z,56.80
2023-04-17T02:26:33.045Z,63.90
2023-04-17T02:28:34.511Z,105.05
2023-04-17T02:30:35.965Z,76.18
2023-04-17T02:32:37.480Z,72.82
2023-04-17T02:34:38.956Z,71.43
2023-04-17T02:36:40.401Z,64.55
2023-04-17T02:38:41.809Z,68.95
2023-04-17T02:40:43.241Z,72.28
2023-04-17T02:42:44.651Z,64.35
2023-04-17T02:44:46.637Z,69.75
2023-04-17T02:46:48.107Z,68.38
2023-04-17T02:48:49.593Z,66.47
2023-04-17T02:50:51.189Z,80.05
2023-04-17T02:52:52.629Z,72.05
2023-04-17T02:54:54.780Z,71.88
2023-04-17T02:56:58.630Z,69.13
2023-04-17T02:59:00.044Z,80.63
2023-04-17T03:01:02.499Z,70.85
2023-04-17T03:03:04.959Z,66.88
2023-04-17T03:05:07.145Z,73.97
2023-04-17T03:07:10.403Z,74.97
2023-04-17T03:09:12.560Z,84.60
2023-04-17T03:11:14.120Z,78.32
2023-04-17T03:13:15.628Z,91.53
2023-04-17T03:15:17.385Z,133.65
2023-04-17T03:17:20.503Z,108.20
2023-04-17T03:19:21.982Z,88.25
2023-04-17T03:21:23.408Z,80.47
2023-04-17T03:23:24.876Z,78.82
2023-04-17T03:25:26.309Z,90.57
2023-04-17T03:27:27.714Z,92.05
2023-04-17T03:29:29.194Z,96.60
2023-04-17T03:31:30.706Z,96.85
2023-04-17T03:33:32.106Z,92.07
2023-04-17T03:35:33.566Z,102.30
2023-04-17T03:37:34.977Z,136.65
2023-04-17T03:39:36.425Z,160.10
2023-04-17T03:41:38.688Z,143.13
2023-04-17T03:43:40.113Z,160.52
2023-04-17T03:45:41.570Z,134.85
2023-04-17T03:47:43.047Z,101.78
2023-04-17T03:49:44.510Z,93.82
2023-04-17T03:51:45.977Z,95.38
2023-04-17T03:53:47.387Z,135.60
2023-04-17T03:55:48.828Z,151.52
2023-04-17T03:57:51.709Z,265.70
2023-04-17T03:59:53.111Z,153.60
2023-04-17T04:01:54.533Z,387.83
2023-04-17T04:03:56.117Z,172.05
2023-04-17T04:05:57.575Z,322.77
2023-04-17T04:07:59.073Z,283.98
2023-04-17T04:10:00.611Z,165.75
2023-04-17T04:12:02.050Z,215.35
2023-04-17T04:14:03.497Z,130.02
2023-04-17T04:16:05.053Z,287.73
2023-04-17T04:18:06.608Z,353.05
2023-04-17T04:20:09.111Z,254.45
2023-04-17T04:22:13.574Z,215.38
2023-04-17T04:24:15.150Z,296.05
2023-04-17T04:26:17.091Z,237.80
2023-04-17T04:28:18.510Z,201.00
2023-04-17T04:30:21.592Z,254.45
2023-04-17T04:32:25.744Z,219.65
2023-04-17T04:34:30.009Z,288.05
2023-04-17T04:36:31.549Z,254.07
2023-04-17T04:38:33.246Z,228.10
2023-04-17T04:40:38.441Z,300.40
2023-04-17T04:42:41.991Z,278.65
2023-04-17T04:44:43.400Z,304.70
2023-04-17T04:46:45.205Z,247.77
2023-04-17T04:48:46.674Z,194.85
2023-04-17T04:50:48.058Z,138.48
2023-04-17T04:52:49.454Z,115.63
2023-04-17T04:54:51.521Z,150.35
2023-04-17T04:56:53.135Z,264.08
2023-04-17T04:58:55.447Z,106.43
2023-04-17T05:00:56.965Z,218.07
2023-04-17T05:02:58.644Z,105.55
2023-04-17T05:05:00.439Z,187.23
2023-04-17T05:07:02.189Z,218.40
2023-04-17T05:09:03.674Z,224.85
2023-04-17T05:11:05.182Z,301.75
2023-04-17T05:13:06.638Z,163.90
2023-04-17T05:15:08.315Z,207.25
2023-04-17T05:17:09.940Z,135.95
2023-04-17T05:19:11.842Z,89.55
2023-04-17T05:21:13.546Z,110.80
2023-04-17T05:23:15.030Z,169.32
2023-04-17T05:25:16.689Z,91.70
2023-04-17T05:27:18.121Z,187.77
2023-04-17T05:29:19.695Z,104.82
2023-04-17T05:31:22.206Z,88.50
2023-04-17T05:33:23.915Z,146.27
2023-04-17T05:35:25.390Z,91.75
2023-04-17T05:37:26.794Z,129.18
2023-04-17T05:39:28.205Z,196.90
2023-04-17T05:41:30.744Z,155.50
2023-04-17T05:43:32.157Z,254.77
2023-04-17T05:45:33.611Z,112.50
2023-04-17T05:47:35.127Z,210.95
2023-04-17T05:49:36.561Z,217.65
2023-04-17T05:51:37.986Z,132.48
2023-04-17T05:53:39.439Z,171.52
2023-04-17T05:55:41.107Z,256.27
2023-04-17T05:57:42.523Z,240.43
2023-04-17T05:59:44.105Z,223.93
2023-04-17T06:01:45.510Z,180.38
2023-04-17T06:03:47.309Z,164.13
2023-04-17T06:05:49.008Z,156.90
2023-04-17T06:07:50.475Z,92.32
2023-04-17T06:09:51.965Z,127.97
2023-04-17T06:11:53.907Z,94.40
2023-04-17T06:13:55.399Z,55.95
2023-04-17T06:15:56.827Z,112.28
2023-04-17T06:17:58.327Z,125.75
2023-04-17T06:19:59.812Z,96.00
2023-04-17T06:22:01.241Z,99.85
2023-04-17T06:24:02.697Z,90.25
2023-04-17T06:26:04.113Z,39.22
2023-04-17T06:28:05.564Z,78.88
2023-04-17T06:30:07.272Z,55.90
2023-04-17T06:32:08.761Z,34.30
2023-04-17T06:34:10.334Z,63.30
2023-04-17T06:36:11.777Z,78.40
2023-04-17T06:38:13.236Z,68.18
2023-04-17T06:40:14.756Z,53.22
2023-04-17T06:42:16.512Z,45.13
2023-04-17T06:44:18.452Z,50.30
2023-04-17T06:46:19.960Z,42.60
2023-04-17T06:48:21.501Z,51.78
2023-04-17T06:50:22.987Z,53.15
2023-04-17T06:52:24.435Z,45.42
2023-04-17T06:54:26.061Z,40.90
2023-04-17T06:56:27.526Z,43.78
2023-04-17T06:58:28.880Z,41.92
2023-04-17T07:00:30.600Z,36.47
2023-04-17T07:02:32.500Z,33.78
2023-04-17T07:04:34.152Z,38.47
2023-04-17T07:06:36.546Z,41.90
2023-04-17T07:08:38.311Z,43.47
2023-04-17T07:10:39.772Z,40.58
2023-04-17T07:12:41.473Z,31.17
2023-04-17T07:14:42.947Z,33.55
2023-04-17T07:16:44.456Z,44.38
2023-04-17T07:18:45.884Z,38.72
2023-04-17T07:20:50.039Z,38.85
2023-04-17T07:22:51.697Z,28.88
2023-04-17T07:24:53.140Z,29.83
2023-04-17T07:26:54.616Z,29.60
2023-04-17T07:28:56.056Z,31.45
2023-04-17T07:30:58.251Z,32.03
2023-04-17T07:33:00.446Z,39.65
2023-04-17T07:35:02.084Z,44.38
2023-04-17T07:37:03.533Z,38.92
2023-04-17T07:39:06.542Z,37.67
2023-04-17T07:41:08.073Z,33.60
2023-04-17T07:43:09.524Z,40.45
2023-04-17T07:45:11.210Z,40.92
2023-04-17T07:47:12.753Z,34.00
2023-04-17T07:49:14.636Z,22.85
2023-04-17T07:51:16.997Z,32.28
2023-04-17T07:53:18.586Z,35.78
2023-04-17T07:55:20.198Z,33.00
2023-04-17T07:57:22.240Z,36.05
2023-04-17T07:59:23.821Z,22.85
2023-04-17T08:01:26.261Z,31.63
2023-04-17T08:03:28.006Z,32.13
2023-04-17T08:05:29.949Z,27.42
2023-04-17T08:07:31.507Z,36.25
2023-04-17T08:09:33.254Z,22.73
2023-04-17T08:11:40.120Z,24.10
2023-04-17T08:13:51.133Z,44.97
2023-04-17T08:15:54.931Z,38.83
2023-04-17T08:17:58.282Z,26.63
2023-04-17T08:20:02.137Z,50.58
2023-04-17T08:22:04.303Z,41.28
2023-04-17T08:24:05.885Z,43.88
2023-04-17T08:26:07.444Z,28.88
2023-04-17T08:28:08.944Z,38.47
2023-04-17T08:30:13.750Z,29.63
2023-04-17T08:32:16.651Z,23.17
2023-04-17T08:34:18.149Z,20.65
2023-04-17T08:36:19.595Z,27.73
2023-04-17T08:38:21.058Z,26.70
2023-04-17T08:40:24.437Z,27.27
2023-04-17T08:42:26.042Z,24.10
2023-04-17T08:44:27.464Z,21.80
2023-04-17T08:46:30.206Z,20.88
2023-04-17T08:48:31.844Z,20.23
2023-04-17T08:50:33.569Z,20.13
2023-04-17T08:52:51.370Z,21.40
2023-04-17T08:54:52.817Z,25.10
2023-04-17T08:56:54.231Z,37.50
2023-04-17T08:58:55.873Z,26.48
2023-04-17T09:01:07.256Z,17.67
2023-04-17T09:03:11.274Z,18.63
2023-04-17T09:05:20.235Z,22.33
2023-04-17T09:07:29.100Z,27.65
2023-04-17T09:09:49.313Z,21.58
2023-04-17T09:12:10.615Z,15.65
2023-04-17T09:14:29.439Z,25.90
2023-04-17T09:16:34.212Z,23.70
2023-04-17T09:18:36.804Z,24.60
2023-04-17T09:20:48.954Z,23.70
2023-04-17T09:22:58.262Z,19.10
2023-04-17T09:24:59.923Z,23.85
2023-04-17T09:27:21.743Z,19.58
2023-04-17T09:29:23.160Z,20.63
2023-04-17T09:31:26.471Z,16.25
2023-04-17T09:33:28.068Z,29.70
2023-04-17T09:35:29.553Z,30.27
2023-04-17T09:38:00.823Z,15.27
2023-04-17T09:40:04.926Z,21.73
2023-04-17T09:42:06.954Z,64.60
2023-04-17T09:44:09.962Z,31.60
2023-04-17T09:46:11.640Z,30.55
2023-04-17T09:48:13.344Z,35.95
2023-04-17T09:50:18.077Z,49.55
2023-04-17T09:52:20.815Z,30.90
2023-04-17T09:54:23.107Z,27.67
2023-04-17T09:56:26.541Z,23.90
2023-04-17T09:58:27.906Z,30.92
2023-04-17T10:00:29.958Z,25.90
2023-04-17T10:02:32.627Z,30.42
2023-04-17T10:04:35.133Z,24.80
2023-04-17T10:06:36.745Z,34.25
2023-04-17T10:08:38.159Z,25.00
2023-04-17T10:10:39.597Z,46.38
2023-04-17T10:12:41.178Z,40.88
2023-04-17T10:14:46.656Z,26.73
2023-04-17T10:16:49.177Z,28.45
2023-04-17T10:19:10.742Z,27.42
2023-04-17T10:21:19.950Z,23.08
2023-04-17T10:23:31.725Z,53.80
2023-04-17T10:25:33.252Z,20.17
2023-04-17T10:27:34.653Z,25.40
2023-04-17T10:29:52.198Z,24.70
2023-04-17T10:32:27.717Z,21.50
2023-04-17T10:34:35.952Z,23.50
2023-04-17T10:36:40.527Z,25.85
2023-04-17T10:38:44.098Z,32.35
2023-04-17T10:40:46.016Z,30.48
2023-04-17T10:43:23.182Z,35.05
2023-04-17T10:45:24.716Z,27.23
2023-04-17T10:47:33.615Z,21.77
2023-04-17T10:49:51.431Z,23.60
2023-04-17T10:51:52.816Z,26.00
2023-04-17T10:53:54.187Z,28.67
2023-04-17T10:55:57.081Z,15.82
2023-04-17T10:58:05.467Z,18.00
2023-04-17T11:00:16.823Z,8.88
2023-04-17T11:02:33.115Z,11.57
2023-04-17T11:04:34.789Z,17.85
2023-04-17T11:06:37.858Z,8.50
2023-04-17T11:08:39.296Z,11.93
2023-04-17T11:10:40.892Z,13.90
2023-04-17T11:12:45.289Z,11.55
2023-04-17T11:14:46.673Z,10.18
2023-04-17T11:16:49.196Z,9.15
2023-04-17T11:18:52.172Z,8.73
2023-04-17T11:20:53.630Z,8.52
2023-04-17T11:22:55.580Z,9.02
2023-04-17T11:24:57.292Z,12.10
2023-04-17T11:27:00.302Z,15.15
2023-04-17T11:29:01.923Z,11.63
2023-04-17T11:31:03.488Z,16.25
2023-04-17T11:33:06.070Z,11.07
2023-04-17T11:35:09.030Z,9.30
2023-04-17T11:37:13.392Z,13.63
2023-04-17T11:39:15.180Z,23.42
2023-04-17T11:41:16.907Z,12.18
2023-04-17T11:43:19.283Z,17.20
2023-04-17T11:45:20.787Z,14.73
2023-04-17T11:47:23.671Z,11.55
2023-04-17T11:49:29.572Z,11.65
2023-04-17T11:51:31.855Z,16.15
2023-04-17T11:53:34.502Z,15.63
2023-04-17T11:55:36.309Z,20.45
2023-04-17T11:57:41.412Z,23.85
2023-04-17T11:59:44.719Z,12.35
2023-04-17T12:01:52.497Z,20.00
2023-04-17T12:03:54.628Z,14.38
2023-04-17T12:06:03.453Z,16.40
2023-04-17T12:08:07.880Z,16.92
2023-04-17T12:10:09.426Z,16.23
2023-04-17T12:12:11.108Z,15.30
2023-04-17T12:14:13.010Z,22.98
2023-04-17T12:16:14.610Z,17.08
2023-04-17T12:18:16.067Z,17.02
2023-04-17T12:20:17.477Z,19.40
2023-04-17T12:22:19.513Z,18.13
2023-04-17T12:24:22.936Z,11.45
2023-04-17T12:26:25.701Z,19.50
2023-04-17T12:28:27.132Z,23.40
2023-04-17T12:30:28.734Z,25.92
2023-04-17T12:32:30.369Z,19.75
2023-04-17T12:34:31.875Z,18.20
2023-04-17T12:36:33.519Z,25.17
2023-04-17T12:38:35.110Z,21.48
2023-04-17T12:40:36.546Z,15.55
2023-04-17T12:42:48.310Z,15.15
2023-04-17T12:44:50.801Z,16.02
2023-04-17T12:46:52.170Z,20.45
2023-04-17T12:48:58.550Z,18.08
2023-04-17T12:50:59.987Z,18.35
2023-04-17T12:53:01.424Z,21.33
2023-04-17T12:55:03.824Z,23.52
2023-04-17T12:57:05.974Z,19.92
2023-04-17T12:59:07.647Z,19.58
2023-04-17T13:01:09.057Z,20.58
2023-04-17T13:03:10.787Z,20.23
2023-04-17T13:05:12.343Z,19.17
2023-04-17T13:07:13.726Z,17.08
2023-04-17T13:09:16.996Z,35.22
2023-04-17T13:11:18.384Z,27.85
2023-04-17T13:13:19.796Z,16.17
2023-04-17T13:15:21.937Z,13.70
2023-04-17T13:17:24.230Z,22.10
2023-04-17T13:19:25.640Z,18.55
2023-04-17T13:21:27.127Z,22.45
2023-04-17T13:23:29.340Z,17.20
2023-04-17T13:25:31.790Z,18.20
2023-04-17T13:27:33.331Z,11.88
2023-04-17T13:29:34.761Z,17.40
2023-04-17T13:31:37.084Z,18.00
2023-04-17T13:33:40.305Z,17.65
2023-04-17T13:35:41.719Z,18.20
2023-04-17T13:37:43.434Z,15.18
2023-04-17T13:39:44.875Z,14.52
2023-04-17T13:41:46.403Z,20.02
2023-04-17T13:43:47.823Z,17.75
2023-04-17T13:45:49.670Z,20.55
2023-04-17T13:47:51.435Z,15.60
2023-04-17T13:49:52.833Z,25.75
2023-04-17T13:51:54.207Z,30.17
2023-04-17T13:53:58.923Z,21.95
2023-04-17T13:56:00.319Z,19.30
2023-04-17T13:58:01.659Z,29.08
2023-04-17T14:00:03.729Z,18.20
2023-04-17T14:02:05.198Z,32.55
2023-04-17T14:04:06.814Z,15.50
2023-04-17T14:06:08.382Z,22.75
2023-04-17T14:08:09.845Z,17.77
2023-04-17T14:10:11.351Z,19.70
2023-04-17T14:12:16.725Z,21.55
2023-04-17T14:14:18.101Z,21.65
2023-04-17T14:16:19.709Z,18.95
2023-04-17T14:18:21.300Z,13.23
2023-04-17T14:20:22.719Z,16.60
2023-04-17T14:22:24.084Z,22.20
2023-04-17T14:24:25.581Z,19.48
2023-04-17T14:26:26.969Z,20.00
2023-04-17T14:28:28.338Z,29.75
2023-04-17T14:30:29.888Z,18.67
2023-04-17T14:32:31.383Z,18.45
2023-04-17T14:34:32.856Z,24.58
2023-04-17T14:36:34.733Z,23.00
2023-04-17T14:38:36.183Z,33.10
2023-04-17T14:40:37.925Z,29.77
2023-04-17T14:42:51.180Z,21.42
2023-04-17T14:44:55.253Z,29.88
2023-04-17T14:46:57.441Z,30.83
2023-04-17T14:48:58.867Z,28.17
2023-04-17T14:51:01.600Z,27.33
2023-04-17T14:53:04.447Z,33.80
2023-04-17T14:55:06.126Z,25.38
2023-04-17T14:57:07.543Z,22.98
2023-04-17T14:59:08.961Z,27.40
2023-04-17T15:01:10.772Z,32.88
2023-04-17T15:03:12.375Z,36.88
2023-04-17T15:05:17.502Z,33.90
2023-04-17T15:07:18.915Z,57.25
2023-04-17T15:09:20.305Z,55.20
2023-04-17T15:11:21.647Z,33.22
2023-04-17T15:13:23.284Z,29.50
2023-04-17T15:15:24.612Z,39.10
2023-04-17T15:17:26.032Z,28.67
2023-04-17T15:19:27.519Z,32.83
2023-04-17T15:21:28.995Z,37.42
2023-04-17T15:23:30.803Z,69.32
2023-04-17T15:25:32.188Z,28.95
2023-04-17T15:27:33.592Z,50.83
2023-04-17T15:29:35.016Z,29.25
2023-04-17T15:31:40.353Z,39.30
2023-04-17T15:33:42.041Z,104.13
2023-04-17T15:35:43.453Z,20.90
2023-04-17T15:37:44.876Z,21.25
2023-04-17T15:39:46.392Z,23.60
2023-04-17T15:41:47.934Z,25.98
2023-04-17T15:43:49.922Z,13.23
2023-04-17T15:45:51.584Z,24.27
2023-04-17T15:47:53.655Z,24.40
2023-04-17T15:49:55.532Z,26.17
2023-04-17T15:51:56.948Z,37.60
2023-04-17T15:53:58.484Z,17.83
2023-04-17T15:55:59.930Z,19.80
2023-04-17T15:58:01.288Z,12.40
2023-04-17T16:00:02.839Z,16.17
2023-04-17T16:02:04.350Z,14.70
2023-04-17T16:04:06.006Z,30.70
2023-04-17T16:06:08.095Z,28.40
2023-04-17T16:08:09.480Z,17.25
2023-04-17T16:10:14.703Z,15.43
2023-04-17T16:12:16.233Z,13.30
2023-04-17T16:14:17.795Z,80.88
2023-04-17T16:16:19.214Z,33.00
2023-04-17T16:18:20.626Z,36.70
2023-04-17T16:20:22.107Z,24.77
2023-04-17T16:22:23.627Z,22.40
2023-04-17T16:24:25.695Z,28.58
2023-04-17T16:26:27.049Z,23.65
2023-04-17T16:28:28.477Z,34.95
2023-04-17T16:30:29.942Z,13.70
2023-04-17T16:32:31.992Z,17.63
2023-04-17T16:34:33.562Z,24.85
2023-04-17T16:36:34.943Z,14.70
2023-04-17T16:38:36.318Z,17.33
2023-04-17T16:40:37.728Z,21.77
2023-04-17T16:42:39.210Z,21.30
2023-04-17T16:44:40.906Z,30.60
2023-04-17T16:46:59.219Z,24.40
2023-04-17T16:49:04.579Z,28.90
2023-04-17T16:51:06.354Z,25.48
2023-04-17T16:53:07.875Z,31.42
2023-04-17T16:55:09.630Z,19.15
2023-04-17T16:57:11.181Z,20.55
2023-04-17T16:59:12.844Z,19.00
2023-04-17T17:01:14.506Z,21.52
2023-04-17T17:03:16.602Z,16.88
2023-04-17T17:05:18.132Z,27.65
2023-04-17T17:07:19.478Z,26.73
2023-04-17T17:09:20.824Z,30.20
2023-04-17T17:11:22.269Z,23.80
2023-04-17T17:13:24.142Z,25.20
2023-04-17T17:15:25.639Z,31.92
2023-04-17T17:17:27.063Z,31.52
2023-04-17T17:19:28.454Z,21.13
2023-04-17T17:21:29.868Z,30.20
2023-04-17T17:23:32.248Z,29.42
2023-04-17T17:25:33.585Z,20.27
2023-04-17T17:27:34.980Z,17.67
2023-04-17T17:29:36.311Z,31.55
2023-04-17T17:31:37.768Z,27.23
2023-04-17T17:33:39.188Z,27.70
2023-04-17T17:35:40.753Z,34.50
2023-04-17T17:37:42.491Z,28.20
2023-04-17T17:39:43.876Z,30.08
2023-04-17T17:41:47.244Z,28.58
2023-04-17T17:43:48.999Z,30.40
2023-04-17T17:45:50.721Z,34.00
2023-04-17T17:47:53.116Z,38.25
2023-04-17T17:49:54.585Z,33.67
2023-04-17T17:51:55.950Z,34.08
2023-04-17T17:53:57.345Z,33.13
2023-04-17T17:55:58.751Z,42.70
2023-04-17T17:58:00.190Z,31.67
2023-04-17T18:00:01.699Z,44.95
2023-04-17T18:02:03.264Z,35.22
2023-04-17T18:04:05.168Z,32.85
2023-04-17T18:06:06.753Z,242.85
2023-04-17T18:08:08.130Z,40.30
2023-04-17T18:10:09.709Z,36.78
2023-04-17T18:12:11.077Z,41.67
2023-04-17T18:14:12.559Z,44.65
2023-04-17T18:16:14.186Z,43.85
2023-04-17T18:18:15.666Z,48.08
2023-04-17T18:20:17.084Z,42.90
2023-04-17T18:22:20.438Z,33.00
2023-04-17T18:24:21.848Z,37.45
2023-04-17T18:26:23.300Z,40.33
2023-04-17T18:28:24.901Z,43.75
2023-04-17T18:30:26.245Z,48.13
2023-04-17T18:32:27.642Z,44.15
2023-04-17T18:34:29.081Z,39.50
2023-04-17T18:36:30.895Z,34.63
2023-04-17T18:38:32.364Z,29.40
2023-04-17T18:40:33.802Z,41.72
2023-04-17T18:42:35.157Z,44.60
2023-04-17T18:44:36.524Z,48.80
2023-04-17T18:46:37.942Z,47.10
2023-04-17T18:48:39.442Z,42.00
2023-04-17T18:50:40.849Z,35.45
2023-04-17T18:52:46.274Z,56.50
2023-04-17T18:54:50.906Z,44.25
2023-04-17T18:56:52.328Z,49.17
2023-04-17T18:58:53.717Z,46.95
2023-04-17T19:00:55.213Z,45.33
2023-04-17T19:02:56.796Z,45.75
2023-04-17T19:04:58.254Z,53.85
2023-04-17T19:06:59.725Z,50.55
2023-04-17T19:09:01.092Z,43.90
2023-04-17T19:11:02.949Z,47.08
2023-04-17T19:13:09.652Z,43.92
2023-04-17T19:15:11.287Z,44.70
2023-04-17T19:17:12.764Z,38.20
2023-04-17T19:19:15.447Z,59.92
2023-04-17T19:21:17.160Z,41.03
2023-04-17T19:23:18.573Z,41.50
2023-04-17T19:25:20.002Z,57.05
2023-04-17T19:27:21.485Z,44.45
2023-04-17T19:29:22.844Z,34.75
2023-04-17T19:31:24.271Z,48.22
2023-04-17T19:33:25.764Z,29.98
2023-04-17T19:35:27.207Z,38.85
2023-04-17T19:37:28.606Z,31.25
2023-04-17T19:39:30.076Z,40.78
2023-04-17T19:41:31.501Z,38.35
2023-04-17T19:43:32.874Z,45.70
2023-04-17T19:45:34.819Z,50.65
2023-04-17T19:47:37.267Z,40.00
2023-04-17T19:49:38.901Z,26.55
2023-04-17T19:51:40.459Z,26.10
2023-04-17T19:53:42.674Z,30.52
2023-04-17T19:55:44.075Z,29.23
2023-04-17T19:57:45.576Z,31.48
2023-04-17T19:59:47.009Z,28.15
2023-04-17T20:01:48.799Z,21.85
2023-04-17T20:03:50.763Z,28.23
2023-04-17T20:05:52.657Z,33.08
2023-04-17T20:07:54.109Z,31.45
2023-04-17T20:09:55.554Z,35.45
2023-04-17T20:11:56.923Z,24.58
2023-04-17T20:13:58.344Z,27.58
2023-04-17T20:15:59.762Z,30.55
2023-04-17T20:18:01.186Z,34.05
2023-04-17T20:20:02.671Z,29.83
2023-04-17T20:22:04.181Z,30.05
2023-04-17T20:24:05.877Z,37.90
2023-04-17T20:26:08.145Z,35.35
2023-04-17T20:28:09.731Z,33.22
2023-04-17T20:30:11.404Z,33.53
2023-04-17T20:32:12.779Z,28.83
2023-04-17T20:34:14.338Z,22.58
2023-04-17T20:36:15.894Z,21.42
2023-04-17T20:38:17.341Z,20.63
2023-04-17T20:40:19.453Z,30.45
2023-04-17T20:42:20.957Z,33.22
2023-04-17T20:44:22.393Z,28.55
2023-04-17T20:46:23.877Z,23.42
2023-04-17T20:48:25.615Z,21.25
2023-04-17T20:50:27.122Z,25.33
2023-04-17T20:52:29.064Z,31.35
2023-04-17T20:54:30.607Z,19.42
2023-04-17T20:56:32.124Z,14.60
2023-04-17T20:58:33.542Z,20.00
2023-04-17T21:00:34.993Z,19.42
2023-04-17T21:02:36.826Z,20.55
2023-04-17T21:04:38.295Z,29.38
2023-04-17T21:06:39.726Z,21.98
2023-04-17T21:08:41.225Z,28.73
2023-04-17T21:10:42.749Z,24.40
2023-04-17T21:12:44.161Z,31.67
2023-04-17T21:14:45.707Z,25.15
2023-04-17T21:16:47.263Z,13.52
2023-04-17T21:18:48.719Z,18.67
2023-04-17T21:20:50.226Z,17.83
2023-04-17T21:22:51.622Z,16.15
2023-04-17T21:24:53.081Z,19.70
2023-04-17T21:26:58.488Z,16.70
2023-04-17T21:28:59.937Z,26.85
2023-04-17T21:31:01.383Z,26.63
2023-04-17T21:33:03.375Z,20.60
2023-04-17T21:35:05.135Z,24.88
2023-04-17T21:37:06.616Z,23.45
2023-04-17T21:39:08.686Z,21.55
2023-04-17T21:41:10.113Z,25.80
2023-04-17T21:43:11.572Z,37.22
2023-04-17T21:45:14.243Z,24.55
2023-04-17T21:47:16.603Z,27.20
2023-04-17T21:49:18.005Z,24.75
2023-04-17T21:51:19.406Z,22.85
2023-04-17T21:53:20.862Z,21.17
2023-04-17T21:55:22.242Z,17.90
2023-04-17T21:57:23.650Z,18.45
2023-04-17T21:59:25.101Z,22.60
2023-04-17T22:01:26.653Z,19.10
2023-04-17T22:03:28.216Z,18.73
2023-04-17T22:05:29.688Z,17.60
2023-04-17T22:07:35.940Z,21.60
2023-04-17T22:09:42.406Z,22.90
2023-04-17T22:11:43.824Z,24.33
2023-04-17T22:13:47.094Z,23.33
2023-04-17T22:15:48.637Z,24.02
2023-04-17T22:17:50.166Z,28.17
2023-04-17T22:19:51.739Z,28.50
2023-04-17T22:21:53.181Z,24.02
2023-04-17T22:23:54.741Z,22.15
2023-04-17T22:25:56.147Z,24.23
2023-04-17T22:27:57.524Z,22.00
2023-04-17T22:29:58.955Z,32.13
2023-04-17T22:32:00.367Z,27.00
2023-04-17T22:34:01.822Z,31.83
2023-04-17T22:36:03.432Z,27.38
2023-04-17T22:38:04.842Z,25.77
2023-04-17T22:40:06.701Z,29.67
2023-04-17T22:42:08.229Z,27.38
2023-04-17T22:44:09.664Z,28.40
2023-04-17T22:46:11.163Z,28.95
2023-04-17T22:48:12.667Z,35.67
2023-04-17T22:50:14.297Z,40.33
2023-04-17T22:52:15.873Z,18.00
2023-04-17T22:54:22.604Z,32.35
2023-04-17T22:56:24.822Z,30.00
2023-04-17T22:58:26.259Z,30.13
2023-04-17T23:00:27.670Z,27.38
2023-04-17T23:02:29.164Z,32.83
2023-04-17T23:04:30.768Z,30.17
2023-04-17T23:06:32.315Z,30.55
2023-04-17T23:08:33.720Z,29.23
2023-04-17T23:10:35.111Z,30.27
2023-04-17T23:12:36.515Z,33.00
2023-04-17T23:14:37.915Z,19.88
2023-04-17T23:16:39.329Z,24.73
2023-04-17T23:18:40.824Z,24.77
2023-04-17T23:20:42.241Z,22.65
2023-04-17T23:22:43.789Z,18.15
2023-04-17T23:24:45.565Z,25.77
2023-04-17T23:26:48.539Z,31.27
2023-04-17T23:28:50.040Z,24.75
2023-04-17T23:30:51.422Z,32.40
2023-04-17T23:32:53.747Z,35.08
2023-04-17T23:34:55.327Z,28.58
2023-04-17T23:36:56.769Z,26.50
2023-04-17T23:38:58.193Z,32.50
2023-04-17T23:40:59.609Z,29.02
2023-04-17T23:43:01.096Z,18.00
2023-04-17T23:45:02.522Z,23.35
2023-04-17T23:47:04.152Z,30.67
2023-04-17T23:49:06.938Z,28.60
2023-04-17T23:51:09.019Z,32.40
2023-04-17T23:53:10.453Z,26.50
2023-04-17T23:55:11.891Z,20.60
2023-04-17T23:57:13.413Z,16.67
2023-04-17T23:59:14.894Z,16.50
